createdAt,value
2019-05-21T00:00:45.597Z,14.79
2019-05-21T00:01:45.686Z,14.93
2019-05-21T00:02:45.608Z,14.82
2019-05-21T00:03:45.563Z,14.82
2019-05-21T00:04:45.548Z,14.82
2019-05-21T00:05:45.573Z,14.83
2019-05-21T00:06:45.534Z,14.85
2019-05-21T00:07:45.548Z,14.77
2019-05-21T00:08:45.506Z,14.89
2019-05-21T00:09:45.494Z,14.90
2019-05-21T00:10:45.480Z,14.85
2019-05-21T00:11:45.470Z,14.93
2019-05-21T00:12:45.494Z,14.90
2019-05-21T00:13:45.480Z,14.79
2019-05-21T00:14:45.432Z,14.87
2019-05-21T00:15:45.421Z,14.82
2019-05-21T00:16:45.412Z,14.79
2019-05-21T00:17:45.405Z,14.86
2019-05-21T00:18:45.413Z,14.82
2019-05-21T00:19:45.382Z,14.78
2019-05-21T00:20:45.372Z,14.79
2019-05-21T00:21:45.365Z,14.78
2019-05-21T00:22:45.339Z,14.66
2019-05-21T00:23:45.364Z,14.71
2019-05-21T00:24:45.323Z,14.73
2019-05-21T00:25:45.318Z,14.79
2019-05-21T00:26:45.298Z,14.70
2019-05-21T00:27:45.331Z,14.78
2019-05-21T00:28:45.301Z,14.67
2019-05-21T00:29:45.263Z,14.79
2019-05-21T00:30:45.263Z,14.74
2019-05-21T00:31:45.247Z,14.73
2019-05-21T00:32:45.226Z,14.66
2019-05-21T00:33:45.244Z,14.73
2019-05-21T00:34:45.204Z,14.66
2019-05-21T00:35:45.199Z,14.64
2019-05-21T00:36:45.184Z,14.67
2019-05-21T00:37:45.177Z,14.59
2019-05-21T00:38:45.202Z,14.78
2019-05-21T00:39:45.148Z,14.67
2019-05-21T00:40:45.149Z,14.67
2019-05-21T00:41:45.142Z,14.66
2019-05-21T00:42:45.120Z,14.67
2019-05-21T00:43:45.146Z,14.64
2019-05-21T00:44:45.098Z,14.55
2019-05-21T00:45:45.082Z,14.61
2019-05-21T00:46:45.067Z,14.61
2019-05-21T00:47:45.055Z,14.53
2019-05-21T00:48:45.160Z,14.59
2019-05-21T00:49:45.036Z,14.61
2019-05-21T00:50:45.050Z,14.53
2019-05-21T00:51:45.019Z,14.63
2019-05-21T00:52:45.007Z,14.64
2019-05-21T00:53:45.019Z,14.56
2019-05-21T00:54:45.003Z,14.58
2019-05-21T00:55:44.969Z,14.59
2019-05-21T00:56:44.960Z,14.58
2019-05-21T00:57:44.942Z,14.56
2019-05-21T00:58:44.940Z,14.58
2019-05-21T00:59:44.960Z,14.55
2019-05-21T01:00:44.939Z,14.51
2019-05-21T01:01:44.895Z,14.48
2019-05-21T01:02:44.994Z,14.49
2019-05-21T01:03:44.869Z,14.40
2019-05-21T01:04:59.730Z,14.52
2019-05-21T01:05:45.851Z,14.52
2019-05-21T01:06:44.932Z,14.51
2019-05-21T01:07:44.831Z,14.48
2019-05-21T01:08:44.851Z,14.51
2019-05-21T01:09:44.833Z,14.45
2019-05-21T01:10:44.837Z,14.45
2019-05-21T01:11:44.792Z,14.51
2019-05-21T01:12:44.774Z,14.41
2019-05-21T01:13:44.760Z,14.56
2019-05-21T01:14:44.851Z,14.45
2019-05-21T01:15:44.740Z,14.41
2019-05-21T01:16:44.759Z,14.44
2019-05-21T01:17:44.714Z,14.52
2019-05-21T01:18:44.703Z,14.49
2019-05-21T01:19:44.716Z,14.63
2019-05-21T01:20:44.682Z,14.58
2019-05-21T01:21:44.668Z,14.55
2019-05-21T01:22:44.661Z,14.52
2019-05-21T01:23:44.648Z,14.55
2019-05-21T01:24:44.662Z,14.49
2019-05-21T01:25:44.623Z,14.59
2019-05-21T01:26:44.615Z,14.52
2019-05-21T01:27:44.606Z,14.40
2019-05-21T01:28:44.593Z,14.53
2019-05-21T01:29:44.611Z,14.41
2019-05-21T01:30:44.567Z,14.52
2019-05-21T01:31:44.557Z,14.56
2019-05-21T01:32:44.555Z,14.52
2019-05-21T01:33:44.593Z,14.45
2019-05-21T01:34:44.528Z,14.61
2019-05-21T01:35:44.544Z,14.66
2019-05-21T01:36:44.504Z,14.61
2019-05-21T01:37:44.500Z,14.61
2019-05-21T01:38:44.498Z,14.46
2019-05-21T01:39:44.470Z,14.55
2019-05-21T01:40:44.484Z,14.46
2019-05-21T01:41:44.446Z,14.52
2019-05-21T01:42:44.434Z,14.53
2019-05-21T01:43:44.424Z,14.56
2019-05-21T01:44:44.416Z,14.40
2019-05-21T01:45:44.434Z,14.55
2019-05-21T01:46:44.394Z,14.59
2019-05-21T01:47:44.379Z,14.64
2019-05-21T01:48:44.365Z,14.61
2019-05-21T01:49:44.373Z,14.51
2019-05-21T01:50:44.390Z,14.66
2019-05-21T01:51:44.338Z,14.58
2019-05-21T01:52:44.323Z,14.66
2019-05-21T01:53:44.321Z,14.59
2019-05-21T01:54:44.317Z,14.69
2019-05-21T01:55:44.318Z,14.69
2019-05-21T01:56:44.274Z,14.53
2019-05-21T01:57:44.268Z,14.69
2019-05-21T01:58:44.257Z,14.49
2019-05-21T01:59:44.245Z,14.58
2019-05-21T02:00:44.287Z,14.45
2019-05-21T02:01:44.270Z,14.53
2019-05-21T02:02:44.226Z,14.55
2019-05-21T02:03:44.207Z,14.56
2019-05-21T02:04:44.193Z,14.51
2019-05-21T02:05:44.219Z,14.58
2019-05-21T02:06:44.188Z,14.56
2019-05-21T02:07:44.156Z,14.55
2019-05-21T02:08:44.148Z,14.52
2019-05-21T02:09:44.128Z,14.49
2019-05-21T02:10:44.199Z,14.52
2019-05-21T02:11:44.122Z,14.45
2019-05-21T02:12:44.117Z,14.36
2019-05-21T02:13:44.098Z,14.44
2019-05-21T02:14:44.077Z,14.56
2019-05-21T02:15:44.065Z,14.41
2019-05-21T02:16:44.081Z,14.52
2019-05-21T02:17:44.059Z,14.49
2019-05-21T02:18:44.060Z,14.38
2019-05-21T02:19:44.036Z,14.46
2019-05-21T02:20:44.016Z,14.49
2019-05-21T02:21:44.031Z,14.51
2019-05-21T02:22:44.020Z,14.40
2019-05-21T02:23:44.005Z,14.46
2019-05-21T02:24:43.995Z,14.49
2019-05-21T02:25:43.960Z,14.41
2019-05-21T02:26:43.969Z,14.40
2019-05-21T02:27:43.980Z,14.41
2019-05-21T02:28:43.930Z,14.41
2019-05-21T02:29:43.926Z,14.37
2019-05-21T02:30:43.901Z,14.44
2019-05-21T02:31:43.924Z,14.36
2019-05-21T02:32:43.880Z,14.48
2019-05-21T02:33:43.877Z,14.58
2019-05-21T02:34:43.858Z,14.48
2019-05-21T02:35:53.814Z,14.59
2019-05-21T02:36:44.864Z,14.49
2019-05-21T02:37:43.825Z,14.55
2019-05-21T02:38:43.814Z,14.48
2019-05-21T02:39:43.809Z,14.53
2019-05-21T02:40:43.790Z,14.45
2019-05-21T02:41:43.823Z,14.51
2019-05-21T02:42:43.772Z,14.45
2019-05-21T02:43:43.771Z,14.44
2019-05-21T02:44:43.754Z,14.45
2019-05-21T02:45:43.748Z,14.36
2019-05-21T02:46:43.766Z,14.45
2019-05-21T02:47:43.728Z,14.45
2019-05-21T02:48:43.697Z,14.41
2019-05-21T02:49:43.690Z,14.45
2019-05-21T02:50:43.674Z,14.40
2019-05-21T02:51:43.714Z,14.37
2019-05-21T02:52:43.663Z,14.37
2019-05-21T02:53:43.641Z,14.40
2019-05-21T02:54:43.639Z,14.45
2019-05-21T02:55:43.622Z,14.49
2019-05-21T02:56:43.616Z,14.40
2019-05-21T02:57:43.623Z,14.46
2019-05-21T02:58:43.587Z,14.31
2019-05-21T02:59:43.574Z,14.56
2019-05-21T03:00:43.570Z,14.41
2019-05-21T03:01:43.553Z,14.41
2019-05-21T03:02:43.696Z,14.37
2019-05-21T03:03:43.540Z,14.40
2019-05-21T03:04:43.658Z,14.41
2019-05-21T03:05:43.512Z,14.44
2019-05-21T03:06:43.512Z,14.48
2019-05-21T03:07:43.486Z,14.41
2019-05-21T03:08:43.503Z,14.41
2019-05-21T03:09:43.472Z,14.44
2019-05-21T03:10:43.457Z,14.56
2019-05-21T03:11:43.445Z,14.48
2019-05-21T03:12:43.431Z,14.44
2019-05-21T03:13:43.450Z,14.36
2019-05-21T03:14:43.427Z,14.31
2019-05-21T03:15:43.403Z,14.37
2019-05-21T03:16:43.382Z,14.23
2019-05-21T03:17:43.376Z,14.36
2019-05-21T03:18:43.392Z,14.31
2019-05-21T03:19:43.351Z,14.37
2019-05-21T03:20:43.342Z,14.31
2019-05-21T03:21:43.329Z,14.38
2019-05-21T03:22:43.351Z,14.22
2019-05-21T03:23:43.332Z,14.36
2019-05-21T03:24:43.298Z,14.34
2019-05-21T03:25:43.290Z,14.34
2019-05-21T03:26:43.277Z,14.33
2019-05-21T03:27:43.264Z,14.28
2019-05-21T03:28:43.282Z,14.26
2019-05-21T03:29:43.238Z,14.34
2019-05-21T03:30:43.239Z,14.21
2019-05-21T03:31:43.229Z,14.23
2019-05-21T03:32:43.212Z,14.16
2019-05-21T03:33:43.221Z,14.28
2019-05-21T03:34:43.183Z,14.27
2019-05-21T03:35:43.176Z,14.33
2019-05-21T03:36:43.164Z,14.30
2019-05-21T03:37:43.160Z,14.37
2019-05-21T03:38:43.180Z,14.23
2019-05-21T03:39:43.125Z,14.21
2019-05-21T03:40:43.116Z,14.22
2019-05-21T03:41:43.107Z,14.19
2019-05-21T03:42:43.094Z,14.13
2019-05-21T03:43:43.088Z,14.11
2019-05-21T03:44:58.318Z,14.16
2019-05-21T03:45:44.060Z,14.26
2019-05-21T03:46:43.047Z,14.23
2019-05-21T03:47:43.036Z,14.26
2019-05-21T03:48:43.032Z,14.28
2019-05-21T03:49:43.072Z,14.18
2019-05-21T03:50:43.011Z,14.22
2019-05-21T03:51:43.015Z,14.19
2019-05-21T03:52:42.990Z,14.27
2019-05-21T03:53:42.998Z,14.18
2019-05-21T03:54:42.987Z,14.30
2019-05-21T03:55:42.965Z,14.18
2019-05-21T03:56:42.938Z,14.13
2019-05-21T03:57:42.930Z,14.13
2019-05-21T03:58:42.948Z,14.16
2019-05-21T03:59:42.930Z,14.22
2019-05-21T04:00:42.921Z,14.08
2019-05-21T04:01:42.885Z,14.26
2019-05-21T04:02:42.874Z,14.13
2019-05-21T04:03:42.862Z,14.11
2019-05-21T04:04:42.874Z,14.18
2019-05-21T04:05:42.834Z,14.15
2019-05-21T04:06:51.930Z,14.21
2019-05-21T04:07:43.812Z,14.12
2019-05-21T04:08:42.803Z,14.03
2019-05-21T04:09:43.022Z,14.21
2019-05-21T04:10:42.779Z,14.12
2019-05-21T04:11:42.895Z,14.11
2019-05-21T04:12:42.761Z,14.09
2019-05-21T04:13:42.858Z,14.05
2019-05-21T04:14:42.772Z,14.18
2019-05-21T04:15:42.726Z,14.08
2019-05-21T04:16:42.721Z,14.11
2019-05-21T04:17:42.766Z,14.15
2019-05-21T04:18:42.695Z,14.12
2019-05-21T04:19:42.689Z,14.15
2019-05-21T04:20:42.701Z,14.15
2019-05-21T04:21:42.743Z,14.22
2019-05-21T04:22:42.647Z,14.18
2019-05-21T04:23:42.683Z,14.21
2019-05-21T04:24:42.627Z,14.12
2019-05-21T04:25:42.675Z,14.26
2019-05-21T04:26:42.606Z,14.18
2019-05-21T04:27:42.664Z,14.28
2019-05-21T04:28:42.584Z,14.21
2019-05-21T04:29:42.571Z,14.22
2019-05-21T04:30:42.586Z,14.12
2019-05-21T04:31:42.555Z,14.09
2019-05-21T04:32:42.540Z,14.15
2019-05-21T04:33:42.528Z,14.11
2019-05-21T04:34:42.513Z,14.08
2019-05-21T04:35:42.528Z,14.21
2019-05-21T04:36:42.498Z,14.16
2019-05-21T04:37:42.492Z,14.12
2019-05-21T04:38:42.474Z,14.13
2019-05-21T04:39:42.501Z,14.19
2019-05-21T04:40:42.494Z,14.16
2019-05-21T04:41:42.442Z,14.26
2019-05-21T04:42:42.430Z,14.23
2019-05-21T04:43:42.425Z,14.15
2019-05-21T04:44:42.405Z,14.21
2019-05-21T04:45:42.418Z,14.18
2019-05-21T04:46:42.384Z,14.18
2019-05-21T04:47:42.374Z,14.18
2019-05-21T04:48:42.365Z,14.18
2019-05-21T04:49:42.353Z,14.22
2019-05-21T04:50:42.375Z,14.23
2019-05-21T04:51:42.333Z,14.21
2019-05-21T04:52:42.320Z,14.23
2019-05-21T04:53:42.323Z,14.21
2019-05-21T04:54:42.294Z,14.13
2019-05-21T04:55:42.320Z,14.21
2019-05-21T04:56:42.279Z,14.23
2019-05-21T04:57:42.259Z,14.18
2019-05-21T04:58:42.254Z,14.23
2019-05-21T04:59:42.238Z,14.15
2019-05-21T05:00:42.257Z,14.23
2019-05-21T05:01:42.245Z,14.19
2019-05-21T05:02:42.205Z,14.21
2019-05-21T05:03:42.202Z,14.13
2019-05-21T05:04:42.199Z,14.15
2019-05-21T05:05:42.198Z,14.23
2019-05-21T05:06:42.185Z,14.26
2019-05-21T05:07:42.151Z,14.28
2019-05-21T05:08:42.142Z,14.22
2019-05-21T05:09:42.130Z,14.27
2019-05-21T05:10:42.116Z,14.21
2019-05-21T05:11:42.142Z,14.26
2019-05-21T05:12:42.094Z,14.22
2019-05-21T05:13:42.093Z,14.16
2019-05-21T05:14:42.072Z,14.23
2019-05-21T05:15:42.086Z,14.30
2019-05-21T05:16:42.114Z,14.12
2019-05-21T05:17:42.051Z,14.23
2019-05-21T05:18:42.032Z,14.23
2019-05-21T05:19:42.031Z,14.12
2019-05-21T05:20:42.077Z,14.09
2019-05-21T05:21:42.024Z,14.05
2019-05-21T05:22:42.023Z,14.15
2019-05-21T05:23:41.973Z,14.09
2019-05-21T05:24:41.962Z,14.13
2019-05-21T05:25:41.953Z,14.09
2019-05-21T05:26:42.033Z,14.12
2019-05-21T05:27:41.963Z,13.88
2019-05-21T05:28:41.945Z,13.91
2019-05-21T05:29:41.919Z,13.96
2019-05-21T05:30:41.946Z,14.03
2019-05-21T05:31:41.890Z,13.90
2019-05-21T05:32:41.947Z,13.98
2019-05-21T05:33:41.867Z,14.03
2019-05-21T05:34:41.859Z,13.96
2019-05-21T05:35:41.848Z,14.00
2019-05-21T05:36:41.856Z,13.98
2019-05-21T05:37:45.186Z,14.03
2019-05-21T05:38:41.839Z,13.93
2019-05-21T05:39:41.799Z,13.91
2019-05-21T05:40:41.791Z,13.98
2019-05-21T05:41:41.774Z,14.01
2019-05-21T05:42:41.800Z,14.00
2019-05-21T05:43:41.755Z,13.86
2019-05-21T05:44:41.749Z,14.00
2019-05-21T05:45:41.741Z,14.03
2019-05-21T05:46:41.728Z,13.91
2019-05-21T05:47:41.749Z,13.94
2019-05-21T05:48:41.742Z,14.11
2019-05-21T05:49:41.704Z,14.05
2019-05-21T05:50:41.695Z,13.96
2019-05-21T05:51:41.671Z,14.11
2019-05-21T05:52:41.682Z,13.93
2019-05-21T05:53:41.645Z,13.98
2019-05-21T05:54:41.637Z,14.00
2019-05-21T05:55:41.621Z,13.96
2019-05-21T05:56:41.605Z,14.04
2019-05-21T05:57:41.619Z,14.00
2019-05-21T05:58:41.608Z,14.04
2019-05-21T05:59:41.587Z,13.91
2019-05-21T06:00:41.571Z,14.11
2019-05-21T06:01:41.569Z,14.19
2019-05-21T06:02:41.597Z,14.11
2019-05-21T06:03:41.548Z,14.05
2019-05-21T06:04:41.525Z,14.08
2019-05-21T06:05:41.516Z,14.05
2019-05-21T06:06:41.499Z,14.09
2019-05-21T06:07:41.521Z,14.18
2019-05-21T06:08:41.522Z,14.15
2019-05-21T06:09:41.468Z,14.04
2019-05-21T06:10:41.458Z,13.94
2019-05-21T06:11:41.451Z,14.01
2019-05-21T06:12:41.471Z,14.01
2019-05-21T06:13:41.455Z,14.05
2019-05-21T06:14:41.411Z,14.03
2019-05-21T06:15:41.402Z,14.03
2019-05-21T06:16:41.393Z,14.05
2019-05-21T06:17:41.379Z,14.05
2019-05-21T06:18:41.402Z,13.98
2019-05-21T06:19:41.376Z,14.09
2019-05-21T06:20:41.357Z,13.97
2019-05-21T06:21:41.331Z,14.00
2019-05-21T06:22:41.318Z,14.05
2019-05-21T06:23:41.340Z,14.08
2019-05-21T06:24:41.305Z,14.11
2019-05-21T06:25:41.291Z,14.03
2019-05-21T06:26:41.272Z,14.01
2019-05-21T06:27:41.275Z,14.01
2019-05-21T06:28:41.277Z,14.05
2019-05-21T06:29:41.250Z,13.98
2019-05-21T06:30:41.235Z,13.98
2019-05-21T06:31:41.224Z,14.04
2019-05-21T06:32:41.210Z,14.12
2019-05-21T06:33:41.240Z,14.13
2019-05-21T06:34:41.221Z,14.11
2019-05-21T06:35:41.179Z,14.15
2019-05-21T06:36:41.161Z,14.08
2019-05-21T06:37:41.161Z,14.16
2019-05-21T06:38:41.149Z,14.12
2019-05-21T06:39:41.168Z,14.18
2019-05-21T06:40:41.121Z,14.11
2019-05-21T06:41:41.114Z,14.16
2019-05-21T06:42:41.103Z,14.11
2019-05-21T06:43:41.089Z,14.28
2019-05-21T06:44:41.108Z,14.21
2019-05-21T06:45:41.080Z,14.23
2019-05-21T06:46:41.056Z,14.28
2019-05-21T06:47:41.043Z,14.36
2019-05-21T06:48:41.028Z,14.34
2019-05-21T06:49:41.046Z,14.40
2019-05-21T06:50:41.010Z,14.31
2019-05-21T06:51:41.011Z,14.38
2019-05-21T06:52:41.001Z,14.34
2019-05-21T06:53:40.974Z,14.41
2019-05-21T06:54:40.992Z,14.40
2019-05-21T06:55:40.985Z,14.38
2019-05-21T06:56:40.945Z,14.30
2019-05-21T06:57:40.927Z,14.26
2019-05-21T06:58:40.919Z,14.27
2019-05-21T06:59:40.933Z,14.33
2019-05-21T07:00:40.903Z,14.31
2019-05-21T07:01:40.888Z,14.28
2019-05-21T07:02:40.878Z,14.37
2019-05-21T07:03:40.873Z,14.36
2019-05-21T07:04:40.896Z,14.30
2019-05-21T07:05:56.094Z,14.26
2019-05-21T07:06:44.677Z,14.31
2019-05-21T07:07:40.847Z,14.28
2019-05-21T07:08:40.817Z,14.38
2019-05-21T07:09:40.802Z,14.37
2019-05-21T07:10:40.832Z,14.28
2019-05-21T07:11:40.771Z,14.27
2019-05-21T07:12:40.761Z,14.37
2019-05-21T07:13:40.755Z,14.30
2019-05-21T07:14:40.750Z,14.28
2019-05-21T07:15:40.786Z,14.31
2019-05-21T07:16:40.728Z,14.23
2019-05-21T07:17:40.707Z,14.38
2019-05-21T07:18:41.515Z,14.27
2019-05-21T07:19:40.680Z,14.13
2019-05-21T07:20:40.712Z,14.26
2019-05-21T07:21:40.688Z,14.12
2019-05-21T07:22:40.760Z,14.18
2019-05-21T07:23:40.637Z,14.21
2019-05-21T07:24:40.759Z,14.26
2019-05-21T07:25:40.617Z,14.28
2019-05-21T07:26:40.797Z,14.36
2019-05-21T07:27:40.598Z,14.48
2019-05-21T07:28:40.669Z,14.31
2019-05-21T07:29:40.574Z,14.19
2019-05-21T07:30:40.586Z,14.33
2019-05-21T07:31:40.572Z,14.30
2019-05-21T07:32:40.549Z,14.34
2019-05-21T07:33:40.528Z,14.34
2019-05-21T07:34:40.522Z,14.28
2019-05-21T07:35:40.565Z,14.12
2019-05-21T07:36:40.495Z,14.21
2019-05-21T07:37:40.481Z,14.16
2019-05-21T07:38:52.620Z,14.18
2019-05-21T07:39:41.458Z,14.26
2019-05-21T07:40:40.485Z,14.22
2019-05-21T07:41:40.468Z,14.19
2019-05-21T07:42:40.433Z,14.23
2019-05-21T07:43:40.664Z,14.13
2019-05-21T07:44:40.409Z,14.34
2019-05-21T07:45:40.397Z,14.27
2019-05-21T07:46:40.409Z,14.26
2019-05-21T07:47:40.374Z,14.33
2019-05-21T07:48:40.369Z,14.31
2019-05-21T07:49:40.356Z,14.31
2019-05-21T07:50:40.341Z,14.30
2019-05-21T07:51:40.367Z,14.37
2019-05-21T07:52:40.342Z,14.30
2019-05-21T07:53:40.311Z,14.44
2019-05-21T07:54:40.301Z,14.40
2019-05-21T07:55:40.302Z,14.31
2019-05-21T07:56:40.304Z,14.28
2019-05-21T07:57:40.280Z,14.40
2019-05-21T07:58:40.260Z,14.37
2019-05-21T07:59:40.237Z,14.33
2019-05-21T08:00:40.224Z,14.37
2019-05-21T08:01:40.248Z,14.30
2019-05-21T08:02:40.216Z,14.30
2019-05-21T08:03:40.196Z,14.18
2019-05-21T08:04:40.194Z,14.21
2019-05-21T08:05:40.201Z,14.21
2019-05-21T08:06:40.188Z,14.27
2019-05-21T08:07:40.147Z,14.15
2019-05-21T08:08:40.140Z,14.38
2019-05-21T08:09:40.126Z,14.37
2019-05-21T08:10:40.116Z,14.55
2019-05-21T08:11:40.131Z,14.49
2019-05-21T08:12:40.203Z,14.77
2019-05-21T08:13:40.084Z,14.87
2019-05-21T08:14:40.075Z,14.99
2019-05-21T08:15:40.067Z,15.12
2019-05-21T08:16:40.046Z,15.14
2019-05-21T08:17:40.084Z,15.12
2019-05-21T08:18:40.028Z,15.22
2019-05-21T08:19:40.014Z,15.33
2019-05-21T08:20:40.012Z,15.51
2019-05-21T08:21:39.988Z,15.38
2019-05-21T08:22:40.007Z,15.45
2019-05-21T08:23:40.032Z,15.43
2019-05-21T08:24:39.958Z,15.47
2019-05-21T08:25:40.001Z,15.22
2019-05-21T08:26:39.933Z,15.23
2019-05-21T08:27:40.095Z,15.23
2019-05-21T08:28:39.911Z,15.20
2019-05-21T08:29:39.922Z,15.17
2019-05-21T08:30:39.887Z,15.33
2019-05-21T08:31:39.874Z,15.40
2019-05-21T08:32:39.892Z,15.33
2019-05-21T08:33:40.015Z,15.30
2019-05-21T08:34:39.844Z,15.45
2019-05-21T08:35:39.830Z,15.32
2019-05-21T08:36:39.819Z,15.32
2019-05-21T08:37:39.935Z,15.32
2019-05-21T08:38:39.796Z,15.38
2019-05-21T08:39:39.786Z,15.48
2019-05-21T08:40:39.771Z,15.48
2019-05-21T08:41:39.761Z,15.60
2019-05-21T08:42:39.796Z,15.32
2019-05-21T08:43:39.775Z,15.38
2019-05-21T08:44:39.731Z,15.25
2019-05-21T08:45:39.720Z,15.30
2019-05-21T08:46:39.705Z,15.35
2019-05-21T08:47:39.701Z,15.40
2019-05-21T08:48:39.727Z,15.23
2019-05-21T08:49:39.677Z,15.20
2019-05-21T08:50:39.711Z,15.45
2019-05-21T08:51:39.689Z,15.50
2019-05-21T08:52:39.712Z,15.48
2019-05-21T08:53:39.648Z,15.52
2019-05-21T08:54:39.616Z,15.51
2019-05-21T08:55:39.603Z,15.70
2019-05-21T08:56:39.683Z,15.72
2019-05-21T08:57:39.587Z,15.78
2019-05-21T08:58:39.615Z,15.70
2019-05-21T08:59:39.558Z,15.68
2019-05-21T09:00:39.619Z,15.65
2019-05-21T09:01:39.538Z,15.65
2019-05-21T09:02:39.541Z,15.60
2019-05-21T09:03:39.536Z,15.58
2019-05-21T09:04:46.430Z,15.58
2019-05-21T09:05:40.482Z,15.66
2019-05-21T09:06:39.481Z,15.60
2019-05-21T09:07:39.470Z,15.65
2019-05-21T09:08:39.481Z,15.68
2019-05-21T09:09:50.052Z,15.51
2019-05-21T09:10:40.436Z,15.68
2019-05-21T09:11:39.416Z,15.51
2019-05-21T09:12:39.404Z,15.41
2019-05-21T09:13:39.419Z,15.48
2019-05-21T09:14:39.401Z,15.48
2019-05-21T09:15:39.382Z,15.65
2019-05-21T09:16:39.369Z,15.60
2019-05-21T09:17:39.354Z,15.62
2019-05-21T09:18:39.370Z,15.59
2019-05-21T09:19:39.335Z,15.52
2019-05-21T09:20:39.329Z,15.51
2019-05-21T09:21:39.317Z,15.47
2019-05-21T09:22:39.293Z,15.52
2019-05-21T09:23:39.296Z,15.59
2019-05-21T09:24:39.301Z,15.50
2019-05-21T09:25:39.359Z,15.58
2019-05-21T09:26:39.248Z,15.59
2019-05-21T09:27:39.241Z,15.63
2019-05-21T09:28:39.229Z,15.60
2019-05-21T09:29:39.259Z,15.60
2019-05-21T09:30:39.203Z,15.59
2019-05-21T09:31:39.196Z,15.63
2019-05-21T09:32:39.181Z,15.52
2019-05-21T09:33:39.176Z,15.56
2019-05-21T09:34:48.897Z,15.73
2019-05-21T09:35:40.172Z,15.58
2019-05-21T09:36:39.140Z,15.59
2019-05-21T09:37:39.132Z,15.52
2019-05-21T09:38:39.121Z,15.48
2019-05-21T09:39:39.153Z,15.45
2019-05-21T09:40:39.118Z,15.60
2019-05-21T09:41:39.084Z,15.51
2019-05-21T09:42:39.237Z,15.52
2019-05-21T09:43:39.061Z,15.63
2019-05-21T09:44:39.072Z,15.69
2019-05-21T09:45:39.130Z,15.63
2019-05-21T09:46:39.068Z,15.69
2019-05-21T09:47:39.014Z,15.60
2019-05-21T09:48:39.005Z,15.54
2019-05-21T09:49:39.033Z,15.52
2019-05-21T09:50:39.082Z,15.56
2019-05-21T09:51:38.990Z,15.54
2019-05-21T09:52:38.964Z,15.48
2019-05-21T09:53:38.941Z,15.41
2019-05-21T09:54:38.943Z,15.33
2019-05-21T09:55:38.944Z,15.32
2019-05-21T09:56:38.909Z,15.40
2019-05-21T09:57:38.894Z,15.30
2019-05-21T09:58:38.883Z,15.38
2019-05-21T09:59:38.873Z,15.54
2019-05-21T10:00:38.931Z,15.36
2019-05-21T10:01:38.865Z,15.33
2019-05-21T10:02:38.844Z,15.43
2019-05-21T10:03:38.858Z,15.41
2019-05-21T10:04:38.834Z,15.36
2019-05-21T10:05:38.844Z,15.41
2019-05-21T10:06:38.796Z,15.58
2019-05-21T10:07:40.547Z,15.60
2019-05-21T10:08:38.779Z,15.47
2019-05-21T10:09:38.771Z,15.35
2019-05-21T10:10:38.808Z,15.33
2019-05-21T10:11:38.746Z,15.47
2019-05-21T10:12:38.740Z,15.51
2019-05-21T10:13:38.723Z,15.47
2019-05-21T10:14:38.708Z,15.48
2019-05-21T10:15:38.861Z,15.36
2019-05-21T10:16:38.688Z,15.32
2019-05-21T10:17:38.682Z,15.23
2019-05-21T10:18:38.658Z,15.17
2019-05-21T10:19:38.648Z,14.93
2019-05-21T10:20:38.667Z,14.87
2019-05-21T10:21:38.628Z,14.85
2019-05-21T10:22:38.607Z,14.93
2019-05-21T10:23:38.607Z,14.85
2019-05-21T10:24:38.600Z,14.83
2019-05-21T10:25:38.612Z,14.78
2019-05-21T10:26:38.586Z,14.86
2019-05-21T10:27:38.555Z,14.83
2019-05-21T10:28:38.563Z,14.70
2019-05-21T10:29:38.534Z,14.73
2019-05-21T10:30:38.516Z,14.67
2019-05-21T10:31:38.559Z,14.59
2019-05-21T10:32:38.500Z,14.67
2019-05-21T10:33:38.482Z,14.71
2019-05-21T10:34:38.471Z,14.63
2019-05-21T10:35:38.464Z,14.78
2019-05-21T10:36:38.476Z,14.66
2019-05-21T10:37:52.604Z,14.63
2019-05-21T10:38:39.426Z,14.64
2019-05-21T10:39:38.433Z,14.61
2019-05-21T10:40:38.411Z,14.66
2019-05-21T10:41:38.429Z,14.67
2019-05-21T10:42:38.407Z,14.69
2019-05-21T10:43:38.369Z,14.70
2019-05-21T10:44:38.356Z,14.52
2019-05-21T10:45:38.363Z,14.66
2019-05-21T10:46:38.363Z,14.79
2019-05-21T10:47:38.351Z,14.67
2019-05-21T10:48:38.311Z,14.64
2019-05-21T10:49:38.300Z,14.56
2019-05-21T10:50:38.302Z,14.66
2019-05-21T10:51:38.280Z,14.64
2019-05-21T10:52:38.301Z,14.67
2019-05-21T10:53:38.319Z,14.61
2019-05-21T10:54:38.275Z,14.69
2019-05-21T10:55:38.232Z,14.67
2019-05-21T10:56:47.231Z,14.67
2019-05-21T10:57:39.258Z,14.59
2019-05-21T10:58:38.212Z,14.53
2019-05-21T10:59:38.195Z,14.70
2019-05-21T11:00:38.173Z,14.61
2019-05-21T11:01:38.167Z,14.64
2019-05-21T11:02:38.179Z,14.67
2019-05-21T11:03:38.149Z,14.67
2019-05-21T11:04:38.133Z,14.66
2019-05-21T11:05:38.118Z,14.73
2019-05-21T11:06:38.143Z,14.67
2019-05-21T11:07:38.129Z,14.73
2019-05-21T11:08:38.107Z,14.64
2019-05-21T11:09:38.073Z,14.69
2019-05-21T11:10:38.085Z,14.67
2019-05-21T11:11:38.060Z,14.59
2019-05-21T11:12:38.068Z,14.74
2019-05-21T11:13:38.054Z,14.70
2019-05-21T11:14:38.016Z,14.79
2019-05-21T11:15:38.008Z,14.86
2019-05-21T11:16:38.018Z,14.90
2019-05-21T11:17:50.048Z,14.74
2019-05-21T11:18:38.970Z,14.82
2019-05-21T11:19:37.968Z,14.92
2019-05-21T11:20:37.958Z,14.89
2019-05-21T11:21:37.944Z,14.92
2019-05-21T11:22:37.973Z,14.85
2019-05-21T11:23:37.918Z,14.89
2019-05-21T11:24:37.903Z,14.97
2019-05-21T11:25:37.890Z,14.96
2019-05-21T11:26:37.899Z,14.96
2019-05-21T11:27:37.899Z,14.96
2019-05-21T11:28:37.859Z,15.10
2019-05-21T11:29:37.855Z,14.95
2019-05-21T11:30:37.839Z,14.96
2019-05-21T11:31:37.836Z,15.05
2019-05-21T11:32:37.848Z,15.01
2019-05-21T11:33:37.807Z,15.11
2019-05-21T11:34:37.807Z,15.08
2019-05-21T11:35:37.787Z,15.07
2019-05-21T11:36:37.772Z,15.08
2019-05-21T11:37:37.778Z,15.07
2019-05-21T11:38:40.230Z,15.07
2019-05-21T11:39:37.732Z,15.05
2019-05-21T11:40:37.831Z,15.15
2019-05-21T11:41:37.707Z,15.08
2019-05-21T11:42:37.915Z,15.12
2019-05-21T11:43:37.686Z,15.04
2019-05-21T11:44:37.758Z,15.15
2019-05-21T11:45:37.678Z,15.11
2019-05-21T11:46:37.761Z,15.19
2019-05-21T11:47:37.645Z,15.25
2019-05-21T11:48:37.689Z,15.35
2019-05-21T11:49:37.631Z,15.29
2019-05-21T11:50:37.604Z,15.30
2019-05-21T11:51:37.601Z,15.29
2019-05-21T11:52:37.584Z,15.15
2019-05-21T11:53:37.606Z,15.22
2019-05-21T11:54:37.558Z,15.26
2019-05-21T11:55:37.553Z,15.25
2019-05-21T11:56:37.557Z,15.26
2019-05-21T11:57:37.530Z,15.35
2019-05-21T11:58:39.694Z,15.36
2019-05-21T11:59:37.506Z,15.41
2019-05-21T12:00:37.511Z,15.36
2019-05-21T12:01:37.489Z,15.35
2019-05-21T12:02:37.475Z,15.32
2019-05-21T12:03:37.492Z,15.20
2019-05-21T12:04:37.445Z,15.23
2019-05-21T12:05:37.442Z,15.22
2019-05-21T12:06:37.426Z,15.33
2019-05-21T12:07:37.412Z,15.36
2019-05-21T12:08:37.425Z,15.38
2019-05-21T12:09:37.388Z,15.38
2019-05-21T12:10:37.378Z,15.35
2019-05-21T12:11:37.370Z,15.40
2019-05-21T12:12:37.364Z,15.25
2019-05-21T12:13:37.380Z,15.35
2019-05-21T12:14:37.349Z,15.43
2019-05-21T12:15:37.329Z,15.41
2019-05-21T12:16:37.310Z,15.45
2019-05-21T12:17:37.303Z,15.56
2019-05-21T12:18:37.281Z,15.47
2019-05-21T12:19:37.302Z,15.59
2019-05-21T12:20:37.678Z,15.52
2019-05-21T12:21:37.247Z,15.52
2019-05-21T12:22:37.241Z,15.58
2019-05-21T12:23:37.230Z,15.58
2019-05-21T12:24:37.259Z,15.36
2019-05-21T12:25:37.216Z,15.45
2019-05-21T12:26:37.200Z,15.45
2019-05-21T12:27:37.199Z,15.44
2019-05-21T12:28:37.177Z,15.54
2019-05-21T12:29:37.190Z,15.51
2019-05-21T12:30:37.153Z,15.62
2019-05-21T12:31:37.154Z,15.56
2019-05-21T12:32:37.138Z,15.52
2019-05-21T12:33:37.110Z,15.62
2019-05-21T12:34:39.022Z,15.56
2019-05-21T12:35:37.098Z,15.58
2019-05-21T12:36:37.114Z,15.62
2019-05-21T12:37:37.068Z,15.63
2019-05-21T12:38:37.051Z,15.70
2019-05-21T12:39:37.073Z,15.65
2019-05-21T12:40:37.038Z,15.72
2019-05-21T12:41:37.046Z,15.66
2019-05-21T12:42:37.015Z,15.66
2019-05-21T12:43:37.007Z,15.66
2019-05-21T12:44:37.011Z,15.60
2019-05-21T12:45:36.976Z,15.65
2019-05-21T12:46:36.962Z,15.70
2019-05-21T12:47:37.015Z,15.73
2019-05-21T12:48:36.948Z,15.70
2019-05-21T12:49:37.188Z,15.56
2019-05-21T12:50:36.917Z,15.60
2019-05-21T12:51:36.916Z,15.59
2019-05-21T12:52:36.898Z,15.63